Time;durP1;ratioP1;P1;durP2;ratioP2;P2;SDS_P1;SDS_P2;PMS_P1;PMS_P2;Temp;Humidity;BMP_temperature;BMP_pressure;BME280_temperature;BME280_humidity;BME280_pressure;Samples;Min_cycle;Max_cycle;Signal;HPM_P1;HPM_P2
2023/10/06 00:01:49;;;;;;;15.48;3.40;;;;;;;11.65;58.56;102209.13;4973685;28;20414;-73
2023/10/06 00:04:15;;;;;;;6.50;2.90;;;;;;;11.70;58.23;102202.03;4957516;28;20049;-75
2023/10/06 00:06:42;;;;;;;6.40;1.80;;;;;;;11.97;57.46;102207.53;4973697;28;20030;-75
2023/10/06 00:09:28;;;;;;;9.88;2.80;;;;;;;12.03;57.23;102205.59;4966189;28;20104;-76
2023/10/06 00:11:56;;;;;;;10.07;2.08;;;;;;;11.76;57.73;102209.75;4956625;28;20038;-77
2023/10/06 00:14:39;;;;;;;10.57;2.20;;;;;;;11.70;57.67;102195.94;4962059;28;20061;-75
2023/10/06 00:17:17;;;;;;;8.55;2.28;;;;;;;11.59;58.38;102196.16;4972030;28;20045;-75
2023/10/06 00:19:52;;;;;;;14.38;2.67;;;;;;;11.67;58.15;102196.88;4973802;28;20112;-74
2023/10/06 00:24:50;;;;;;;5.57;1.52;;;;;;;12.01;56.90;102204.78;4967394;28;20051;-74
2023/10/06 00:27:23;;;;;;;12.88;2.13;;;;;;;11.13;59.03;102211.16;4976418;28;20038;-75
2023/10/06 00:29:54;;;;;;;7.22;2.58;;;;;;;11.80;57.44;102200.09;4950934;28;20125;-74
2023/10/06 00:32:22;;;;;;;3.83;2.08;;;;;;;11.56;57.71;102204.09;4962261;28;20039;-74
2023/10/06 00:34:49;;;;;;;5.70;2.00;;;;;;;11.78;57.41;102202.75;4958167;28;20043;-75
2023/10/06 00:37:16;;;;;;;4.28;1.42;;;;;;;11.67;57.53;102191.63;4974351;28;20034;-75
2023/10/06 00:39:43;;;;;;;4.15;2.00;;;;;;;11.56;58.11;102193.63;4968724;28;20125;-73
2023/10/06 00:42:13;;;;;;;10.82;2.78;;;;;;;11.70;57.00;102190.69;4968385;28;20030;-74
2023/10/06 00:44:39;;;;;;;7.47;1.70;;;;;;;11.55;57.67;102198.00;4972412;28;20038;-74
2023/10/06 00:47:06;;;;;;;6.82;2.08;;;;;;;11.83;56.82;102195.63;4970862;28;20474;-74
2023/10/06 00:49:35;;;;;;;8.90;3.15;;;;;;;11.35;58.26;102195.84;4986081;28;20613;-75
2023/10/06 00:52:00;;;;;;;7.38;2.47;;;;;;;11.92;56.70;102191.91;4969218;28;20038;-73
2023/10/06 00:54:26;;;;;;;8.38;2.33;;;;;;;12.08;56.13;102184.53;4957371;28;20521;-75
2023/10/06 00:56:57;;;;;;;4.70;1.58;;;;;;;12.10;55.77;102174.88;4968935;28;20035;-74
2023/10/06 00:59:24;;;;;;;6.03;1.80;;;;;;;12.02;56.05;102176.81;4970462;28;20040;-74
2023/10/06 01:01:50;;;;;;;10.10;2.72;;;;;;;12.13;55.63;102172.16;4975971;28;20647;-75
2023/10/06 01:04:18;;;;;;;10.68;3.67;;;;;;;12.06;55.63;102170.59;4973069;28;20133;-74
2023/10/06 01:06:46;;;;;;;8.00;3.10;;;;;;;12.04;55.75;102175.03;4953103;28;20075;-74
2023/10/06 01:11:46;;;;;;;6.80;1.67;;;;;;;11.44;57.25;102159.00;4965273;28;20126;-74
2023/10/06 01:14:14;;;;;;;13.30;1.40;;;;;;;11.65;56.66;102141.91;4949193;28;20089;-73
2023/10/06 01:16:42;;;;;;;6.75;2.03;;;;;;;11.60;56.58;102146.38;4986029;28;20050;-75
2023/10/06 01:19:15;;;;;;;5.55;2.13;;;;;;;11.45;56.68;102152.84;4954805;28;20549;-76
2023/10/06 01:21:48;;;;;;;7.40;1.55;;;;;;;11.32;57.06;102143.56;4973096;28;20038;-76
2023/10/06 01:24:15;;;;;;;8.10;1.88;;;;;;;11.71;55.88;102133.03;5000964;28;20065;-73
2023/10/06 01:26:41;;;;;;;6.07;1.85;;;;;;;11.42;56.61;102133.75;4969647;28;20529;-74
2023/10/06 01:29:11;;;;;;;11.57;1.98;;;;;;;11.48;56.39;102135.34;4966934;28;20042;-76
2023/10/06 01:31:44;;;;;;;6.63;2.25;;;;;;;11.33;56.80;102123.47;4984892;28;20545;-76
2023/10/06 01:34:10;;;;;;;4.55;2.05;;;;;;;11.38;56.58;102124.25;4987292;28;20062;-76
2023/10/06 01:36:39;;;;;;;8.93;2.40;;;;;;;11.14;57.28;102123.03;4964722;28;20414;-74
2023/10/06 01:39:05;;;;;;;6.10;1.73;;;;;;;11.46;56.40;102114.44;4963420;28;20452;-77
2023/10/06 01:41:34;;;;;;;5.70;1.90;;;;;;;11.19;57.35;102118.56;4957266;28;20525;-75
2023/10/06 01:44:12;;;;;;;6.25;2.30;;;;;;;11.33;56.77;102124.34;4964747;28;20169;-74
2023/10/06 01:46:43;;;;;;;10.52;2.03;;;;;;;10.92;57.93;102118.28;4968458;28;20520;-74
2023/10/06 01:49:12;;;;;;;5.38;1.38;;;;;;;11.46;56.22;102112.69;4953268;28;20121;-75
2023/10/06 01:51:38;;;;;;;7.40;2.10;;;;;;;11.39;56.45;102107.63;4957809;28;20034;-75
2023/10/06 01:54:12;;;;;;;5.68;2.08;;;;;;;11.45;56.16;102107.47;4962120;28;20293;-78
2023/10/06 01:56:44;;;;;;;6.07;2.20;;;;;;;11.33;56.58;102124.34;4971415;28;20294;-74
2023/10/06 01:59:14;;;;;;;5.30;2.35;;;;;;;11.34;56.71;102093.78;4948811;28;20391;-75
2023/10/06 02:01:41;;;;;;;7.03;2.17;;;;;;;11.67;56.16;102097.34;4983433;28;20038;-76
2023/10/06 02:04:14;;;;;;;4.38;2.22;;;;;;;11.68;55.83;102093.81;4977250;28;20056;-75
2023/10/06 02:06:44;;;;;;;4.25;2.20;;;;;;;10.66;58.57;102092.66;4967649;28;20029;-75
2023/10/06 02:09:16;;;;;;;8.32;2.65;;;;;;;11.19;57.41;102084.53;4952357;28;20285;-75
2023/10/06 02:11:42;;;;;;;9.63;2.03;;;;;;;11.44;56.49;102082.19;4966637;28;20044;-74
2023/10/06 02:14:10;;;;;;;14.27;2.92;;;;;;;10.72;58.65;102089.03;4968321;28;20069;-75
2023/10/06 02:16:39;;;;;;;4.07;1.90;;;;;;;11.28;57.03;102078.22;4968064;28;20101;-75
2023/10/06 02:19:16;;;;;;;6.90;1.67;;;;;;;11.21;57.23;102078.38;4961153;28;20050;-76
2023/10/06 02:21:51;;;;;;;10.50;2.47;;;;;;;11.24;57.22;102074.81;4953353;28;20140;-75
2023/10/06 02:24:17;;;;;;;9.40;2.47;;;;;;;11.74;55.66;102080.56;4981729;28;20085;-75
2023/10/06 02:26:50;;;;;;;9.18;1.95;;;;;;;11.72;55.72;102082.38;4965309;28;20030;-76
2023/10/06 02:29:24;;;;;;;6.53;2.35;;;;;;;11.12;57.26;102077.72;4987645;28;20080;-75
2023/10/06 02:31:50;;;;;;;11.43;2.58;;;;;;;11.30;56.73;102061.59;4965718;28;20058;-73
2023/10/06 02:34:29;;;;;;;8.68;2.75;;;;;;;11.25;57.16;102055.59;4972032;28;20097;-74
2023/10/06 02:37:00;;;;;;;11.88;2.80;;;;;;;11.57;56.21;102053.94;4953963;28;20282;-73
2023/10/06 02:39:28;;;;;;;10.15;2.65;;;;;;;11.42;56.71;102063.91;4969944;28;20050;-74
2023/10/06 02:41:58;;;;;;;5.75;2.42;;;;;;;10.96;57.80;102067.63;4964331;28;20052;-76
2023/10/06 02:44:29;;;;;;;10.93;3.08;;;;;;;11.04;57.96;102070.06;4969386;28;20195;-74
2023/10/06 02:46:55;;;;;;;14.88;3.83;;;;;;;11.04;57.92;102059.59;4950836;28;20031;-75
2023/10/06 02:49:31;;;;;;;8.05;2.80;;;;;;;11.36;57.19;102061.44;4967362;28;20462;-73
2023/10/06 02:52:00;;;;;;;7.28;2.45;;;;;;;11.67;56.13;102056.28;4984447;28;20043;-74
2023/10/06 02:54:29;;;;;;;8.02;2.28;;;;;;;11.23;57.36;102044.31;4979922;28;20081;-73
2023/10/06 02:56:55;;;;;;;11.07;3.25;;;;;;;11.34;57.15;102049.28;4956567;28;20101;-75
2023/10/06 02:59:25;;;;;;;8.95;3.72;;;;;;;11.28;57.81;102042.44;4955920;28;20034;-74
2023/10/06 03:02:06;;;;;;;7.63;3.42;;;;;;;11.36;57.56;102030.03;4953275;28;20042;-73
2023/10/06 03:04:36;;;;;;;11.43;4.20;;;;;;;11.30;58.09;102024.94;4965819;28;20118;-73
2023/10/06 03:07:04;;;;;;;8.38;3.90;;;;;;;10.97;59.12;102022.25;4969873;28;20026;-74
2023/10/06 03:09:37;;;;;;;5.20;3.17;;;;;;;11.10;58.92;102016.72;4948327;28;20570;-76
2023/10/06 03:12:12;;;;;;;9.63;3.85;;;;;;;11.35;58.19;102012.63;4970502;28;20180;-75
2023/10/06 03:14:39;;;;;;;11.85;4.50;;;;;;;11.15;58.74;102013.13;4965815;28;20233;-75
2023/10/06 03:17:08;;;;;;;8.57;3.60;;;;;;;11.42;58.21;102003.72;4953921;28;20474;-76
2023/10/06 03:19:40;;;;;;;10.93;3.75;;;;;;;11.33;58.48;102003.94;4980438;28;20039;-77
2023/10/06 03:22:09;;;;;;;11.13;4.00;;;;;;;11.28;58.57;102003.19;4952866;28;20553;-76
2023/10/06 03:24:42;;;;;;;9.18;3.25;;;;;;;11.28;58.33;102000.56;4983153;28;20114;-75
2023/10/06 03:27:14;;;;;;;7.70;3.92;;;;;;;11.36;58.39;102000.38;4965346;28;20121;-75
2023/10/06 03:29:51;;;;;;;16.10;3.95;;;;;;;10.98;59.06;102007.41;4975233;28;20542;-76
2023/10/06 03:32:39;;;;;;;11.05;4.65;;;;;;;11.52;57.95;102000.84;4955034;28;20133;-76
2023/10/06 03:46:03;;;;;;;7.05;3.50;;;;;;;11.36;58.15;101996.00;4982256;28;20101;-76
2023/10/06 03:48:31;;;;;;;10.38;4.28;;;;;;;11.58;57.86;101988.47;4983810;28;20474;-75
2023/10/06 03:50:57;;;;;;;10.25;3.60;;;;;;;11.48;58.26;101989.59;4954356;28;20047;-75
2023/10/06 03:53:29;;;;;;;15.23;4.28;;;;;;;11.39;58.31;101980.22;4956521;28;20034;-76
2023/10/06 03:55:56;;;;;;;13.70;4.57;;;;;;;10.89;60.15;101982.34;5007970;28;20057;-75
2023/10/06 03:58:25;;;;;;;10.07;4.07;;;;;;;11.16;59.14;101979.94;4991244;28;20026;-74
2023/10/06 04:00:52;;;;;;;10.57;4.10;;;;;;;11.68;57.46;101971.56;4974562;28;20065;-75
2023/10/06 04:03:18;;;;;;;10.25;4.15;;;;;;;11.64;57.61;101976.94;4970596;28;20052;-76
2023/10/06 04:05:45;;;;;;;8.48;3.45;;;;;;;11.68;57.66;101975.97;4963053;28;20073;-76
2023/10/06 04:08:14;;;;;;;14.85;4.13;;;;;;;11.39;58.20;101972.34;4980568;28;20035;-77
2023/10/06 04:10:43;;;;;;;8.02;3.30;;;;;;;11.43;58.23;101968.75;4963825;28;20054;-74
2023/10/06 04:13:09;;;;;;;7.70;3.72;;;;;;;11.30;58.46;101971.75;4973889;28;20099;-75
2023/10/06 04:15:38;;;;;;;12.77;4.05;;;;;;;11.52;57.62;101967.66;4978871;28;20042;-75
2023/10/06 04:18:10;;;;;;;7.63;3.65;;;;;;;11.56;57.47;101971.06;4974247;28;20633;-73
2023/10/06 04:20:42;;;;;;;8.75;3.10;;;;;;;11.27;58.37;101967.44;4950400;28;20129;-74
2023/10/06 04:23:11;;;;;;;8.93;3.33;;;;;;;11.28;58.40;101963.06;4984681;28;20088;-76
2023/10/06 04:25:40;;;;;;;9.40;3.58;;;;;;;10.94;59.72;101964.75;4966550;28;20136;-75
2023/10/06 04:28:08;;;;;;;10.73;2.53;;;;;;;11.00;59.70;101963.78;5000270;28;20029;-75
2023/10/06 04:30:35;;;;;;;10.45;4.00;;;;;;;11.05;58.72;101957.50;4972565;28;20733;-75
2023/10/06 04:33:03;;;;;;;8.27;3.15;;;;;;;11.07;58.95;101948.78;5001987;28;20280;-75
2023/10/06 04:35:32;;;;;;;12.07;3.35;;;;;;;11.12;58.91;101962.59;4967361;28;20046;-75
2023/10/06 04:38:01;;;;;;;12.00;4.20;;;;;;;11.01;59.61;101957.63;4966943;28;20219;-73
2023/10/06 04:40:27;;;;;;;11.02;3.88;;;;;;;11.02;59.18;101952.38;4982225;28;20072;-73
2023/10/06 04:42:54;;;;;;;12.88;3.38;;;;;;;11.28;58.86;101953.44;4968476;28;20043;-74
2023/10/06 04:45:20;;;;;;;7.50;3.70;;;;;;;11.28;58.92;101942.13;4953679;28;20069;-74
2023/10/06 04:47:45;;;;;;;12.45;3.63;;;;;;;11.23;58.97;101929.16;4973583;28;20038;-74
2023/10/06 04:50:12;;;;;;;13.10;4.00;;;;;;;11.39;58.47;101932.25;4972076;28;20121;-75
2023/10/06 04:52:42;;;;;;;8.25;3.63;;;;;;;11.19;59.30;101925.75;4959592;28;20097;-73
2023/10/06 04:55:13;;;;;;;10.30;3.83;;;;;;;11.58;57.79;101930.00;4966916;28;20248;-75
2023/10/06 04:57:42;;;;;;;12.45;4.32;;;;;;;11.10;59.57;101928.63;4970803;28;20050;-75
2023/10/06 05:00:19;;;;;;;16.38;3.90;;;;;;;11.18;59.73;101925.81;4965523;28;20112;-75
2023/10/06 05:02:47;;;;;;;11.80;3.95;;;;;;;11.18;59.59;101933.69;5001064;28;20042;-75
2023/10/06 05:05:23;;;;;;;10.60;4.03;;;;;;;10.92;60.30;101940.41;4947575;28;20051;-74
2023/10/06 05:07:50;;;;;;;12.85;5.25;;;;;;;10.90;60.94;101913.41;4971559;28;20309;-76
2023/10/06 05:10:21;;;;;;;23.15;6.03;;;;;;;10.84;61.14;101910.97;4962815;28;20904;-75
2023/10/06 05:12:49;;;;;;;14.13;4.50;;;;;;;10.88;60.83;101904.75;4965040;28;20053;-75
2023/10/06 05:15:23;;;;;;;12.43;5.75;;;;;;;10.93;60.91;101905.53;4959578;28;20546;-76
2023/10/06 05:17:55;;;;;;;15.20;5.38;;;;;;;10.59;62.24;101901.09;4980554;28;20234;-76
2023/10/06 05:20:30;;;;;;;;;;;;;;;10.72;61.75;101903.38;4961293;28;20094;-76
2023/10/06 05:23:10;;;;;;;12.23;5.63;;;;;;;11.10;60.81;101912.06;4968251;28;19918;-77
2023/10/06 05:25:39;;;;;;;14.55;5.72;;;;;;;10.94;61.45;101903.75;4981603;28;20045;-77
2023/10/06 05:28:07;;;;;;;14.70;6.38;;;;;;;10.63;62.69;101897.47;4973468;28;20033;-78
2023/10/06 05:30:33;;;;;;;15.70;7.20;;;;;;;10.57;62.93;101884.56;4952182;28;20034;-77
2023/10/06 05:32:59;;;;;;;15.93;5.75;;;;;;;10.66;62.20;101877.38;4987131;28;20406;-76
2023/10/06 05:35:29;;;;;;;18.08;7.55;;;;;;;10.91;61.96;101881.16;4951241;28;20045;-78
2023/10/06 05:37:54;;;;;;;11.05;6.10;;;;;;;11.02;61.39;101889.59;4961964;28;20149;-76
2023/10/06 05:40:20;;;;;;;13.35;6.25;;;;;;;10.80;62.20;101893.59;4946884;28;20663;-77
2023/10/06 05:42:49;;;;;;;13.82;7.10;;;;;;;10.53;62.71;101905.59;4949305;28;20031;-76
2023/10/06 05:45:18;;;;;;;17.73;6.47;;;;;;;10.69;62.11;101906.94;4936154;28;20047;-77
2023/10/06 05:47:54;;;;;;;19.65;8.13;;;;;;;10.93;61.38;101905.53;4985946;28;20117;-76
2023/10/06 05:50:28;;;;;;;14.70;6.97;;;;;;;10.79;61.98;101900.59;4961833;28;20871;-74
2023/10/06 05:52:59;;;;;;;15.88;7.22;;;;;;;10.66;62.19;101912.25;4976933;28;20036;-77
2023/10/06 05:55:35;;;;;;;13.55;6.45;;;;;;;10.86;61.67;101911.81;4967530;28;20590;-76
2023/10/06 05:58:08;;;;;;;17.60;7.13;;;;;;;10.78;61.61;101908.47;4966659;28;20038;-76
2023/10/06 06:00:35;;;;;;;16.05;6.60;;;;;;;10.50;62.43;101905.66;4965395;28;20540;-75
2023/10/06 06:03:11;;;;;;;13.93;6.65;;;;;;;10.73;61.70;101902.50;4980466;28;20222;-75
2023/10/06 06:05:40;;;;;;;15.93;6.22;;;;;;;10.95;61.09;101900.22;4970052;28;20225;-76
2023/10/06 06:08:08;;;;;;;16.75;6.75;;;;;;;10.72;61.38;101911.22;4968751;28;20035;-77
2023/10/06 06:10:37;;;;;;;14.25;6.25;;;;;;;10.50;62.50;101909.09;4954980;28;20175;-75
2023/10/06 06:13:03;;;;;;;9.77;6.50;;;;;;;10.65;61.90;101910.53;4969078;28;20303;-74
2023/10/06 06:15:29;;;;;;;22.08;6.13;;;;;;;9.67;64.15;101910.84;4966392;28;20050;-78
2023/10/06 06:17:56;;;;;;;12.60;7.30;;;;;;;10.40;62.54;101910.25;5003392;28;20034;-76
2023/10/06 06:20:21;;;;;;;9.48;5.63;;;;;;;10.64;61.43;101907.06;4962629;28;20550;-76
2023/10/06 06:22:55;;;;;;;13.45;5.95;;;;;;;10.76;61.28;101912.88;4956028;28;20050;-75
2023/10/06 06:25:24;;;;;;;16.05;5.60;;;;;;;11.04;60.52;101900.88;4970435;28;20283;-76
2023/10/06 06:27:50;;;;;;;23.08;6.82;;;;;;;10.75;61.28;101896.34;4947489;28;20014;-75
2023/10/06 06:30:18;;;;;;;12.30;5.70;;;;;;;10.99;60.30;101904.50;4948725;28;20051;-75
2023/10/06 06:32:50;;;;;;;18.08;6.45;;;;;;;10.60;61.42;101902.78;4956123;28;20027;-75
2023/10/06 06:35:19;;;;;;;13.63;5.85;;;;;;;11.05;59.69;101904.34;4962992;28;20065;-75
2023/10/06 06:37:56;;;;;;;12.30;5.88;;;;;;;10.99;60.33;101892.25;4948373;28;20039;-73
2023/10/06 06:40:22;;;;;;;9.93;4.85;;;;;;;11.05;60.30;101886.88;4957184;28;20054;-75
2023/10/06 06:42:49;;;;;;;10.38;5.35;;;;;;;10.91;60.35;101896.84;4970695;28;20049;-74
2023/10/06 06:45:15;;;;;;;16.98;8.07;;;;;;;10.99;60.36;101894.03;4961969;28;20124;-74
2023/10/06 06:47:44;;;;;;;13.73;5.93;;;;;;;11.34;59.32;101894.88;4965525;28;20038;-76
2023/10/06 06:50:15;;;;;;;11.88;5.55;;;;;;;11.01;60.22;101898.31;4963191;28;20106;-75
2023/10/06 06:52:47;;;;;;;8.65;4.90;;;;;;;11.01;59.83;101892.22;4963005;28;20031;-76
2023/10/06 06:55:13;;;;;;;12.65;5.18;;;;;;;10.98;60.03;101885.31;4964359;28;20042;-76
2023/10/06 06:57:41;;;;;;;15.88;5.40;;;;;;;11.22;59.13;101888.22;4965457;28;20684;-76
2023/10/06 07:00:15;;;;;;;14.45;5.03;;;;;;;11.01;60.05;101887.84;4953232;28;20046;-74
2023/10/06 07:02:42;;;;;;;13.07;4.75;;;;;;;11.12;59.82;101894.56;4967602;28;20450;-76
2023/10/06 07:05:10;;;;;;;10.63;5.72;;;;;;;11.54;58.75;101897.78;4960233;28;20162;-76
2023/10/06 07:07:37;;;;;;;14.50;5.25;;;;;;;11.53;58.31;101887.34;4962936;28;20022;-75
2023/10/06 07:10:10;;;;;;;13.88;5.80;;;;;;;11.75;57.66;101887.59;4967526;28;20046;-76
2023/10/06 07:12:36;;;;;;;16.33;5.70;;;;;;;11.25;59.39;101888.97;4962298;28;20038;-76
2023/10/06 07:15:02;;;;;;;9.07;5.80;;;;;;;11.57;58.47;101897.69;4963659;28;20026;-77
2023/10/06 07:17:28;;;;;;;10.60;4.88;;;;;;;10.98;59.65;101887.94;4966086;28;20038;-74
2023/10/06 07:19:53;;;;;;;8.65;5.05;;;;;;;10.71;60.51;101883.38;4969968;28;20397;-74
2023/10/06 07:22:22;;;;;;;10.65;5.65;;;;;;;10.77;61.12;101883.19;4953713;28;20225;-75
2023/10/06 07:24:55;;;;;;;11.18;4.85;;;;;;;10.72;60.79;101895.53;4965619;28;20431;-74
2023/10/06 07:27:21;;;;;;;16.45;5.57;;;;;;;11.18;59.38;101899.66;4967949;28;20041;-74
2023/10/06 07:29:46;;;;;;;9.40;4.55;;;;;;;10.82;60.81;101886.63;4964498;28;20062;-77
2023/10/06 07:32:13;;;;;;;11.25;6.03;;;;;;;11.39;59.04;101896.44;4970386;28;20052;-75
2023/10/06 07:34:39;;;;;;;11.52;5.28;;;;;;;11.74;57.82;101888.53;4969398;28;20035;-76
2023/10/06 07:37:04;;;;;;;7.53;4.30;;;;;;;11.73;58.07;101889.41;4959101;28;20576;-75
2023/10/06 07:39:31;;;;;;;15.57;5.07;;;;;;;11.93;57.46;101907.19;4963889;28;20133;-76
2023/10/06 07:41:57;;;;;;;14.57;6.20;;;;;;;11.22;59.78;101898.69;4948758;28;20022;-76
2023/10/06 07:44:25;;;;;;;12.40;5.55;;;;;;;11.53;58.63;101892.59;4994282;28;20510;-75
2023/10/06 07:46:52;;;;;;;11.43;5.10;;;;;;;11.34;59.08;101877.41;4962873;28;20526;-75
2023/10/06 07:49:18;;;;;;;11.25;5.13;;;;;;;11.26;59.75;101879.34;4963010;28;20052;-76
2023/10/06 07:51:45;;;;;;;11.88;4.85;;;;;;;11.63;58.60;101887.06;4965744;28;20862;-75
2023/10/06 07:54:10;;;;;;;11.50;5.07;;;;;;;11.35;59.10;101886.97;4997627;28;20073;-75
2023/10/06 07:56:36;;;;;;;9.65;4.95;;;;;;;10.61;61.37;101877.50;4948590;28;20039;-77
2023/10/06 07:59:02;;;;;;;15.82;5.75;;;;;;;11.37;58.87;101876.44;4997803;28;20073;-76
2023/10/06 08:01:27;;;;;;;10.32;4.60;;;;;;;11.71;58.32;101873.75;4968939;28;20525;-74
2023/10/06 08:03:53;;;;;;;14.48;5.55;;;;;;;10.99;60.34;101879.19;4960684;28;20058;-74
2023/10/06 08:06:20;;;;;;;9.82;4.65;;;;;;;11.67;58.53;101877.38;4964806;28;20019;-74
2023/10/06 08:08:48;;;;;;;6.90;4.43;;;;;;;11.16;60.02;101875.28;4972183;28;20655;-76
2023/10/06 08:11:13;;;;;;;8.90;4.57;;;;;;;11.57;58.89;101883.75;4957806;28;20027;-75
2023/10/06 08:13:40;;;;;;;13.82;5.60;;;;;;;11.99;57.68;101884.31;4978651;28;20085;-75
2023/10/06 08:16:06;;;;;;;9.73;4.47;;;;;;;12.01;58.00;101871.16;4953001;28;20033;-75
2023/10/06 08:18:32;;;;;;;14.02;4.88;;;;;;;11.94;58.15;101864.41;4972034;28;20042;-74
2023/10/06 08:21:01;;;;;;;13.05;4.60;;;;;;;11.80;58.12;101877.91;4970116;28;20082;-76
2023/10/06 08:23:35;;;;;;;8.60;5.20;;;;;;;11.31;59.87;101880.13;4977498;28;20034;-75
2023/10/06 08:26:07;;;;;;;9.68;4.07;;;;;;;12.04;58.28;101866.69;4947044;28;20058;-74
2023/10/06 08:28:33;;;;;;;14.15;5.20;;;;;;;12.15;57.67;101868.97;4949618;28;20152;-75
2023/10/06 08:31:02;;;;;;;10.13;5.80;;;;;;;11.70;58.92;101856.31;4969055;28;20046;-76
2023/10/06 08:33:28;;;;;;;11.85;4.38;;;;;;;11.37;60.05;101868.59;4965061;28;20058;-75
2023/10/06 08:35:58;;;;;;;10.02;5.75;;;;;;;11.64;59.57;101861.72;4966419;28;20038;-76
2023/10/06 08:38:24;;;;;;;13.43;5.22;;;;;;;11.73;59.39;101865.84;4966648;28;20041;-75
2023/10/06 08:40:58;;;;;;;12.60;5.72;;;;;;;11.97;58.76;101869.53;4969757;28;20180;-75
2023/10/06 08:43:27;;;;;;;10.07;5.35;;;;;;;11.18;60.69;101874.34;4970030;28;20078;-75
2023/10/06 08:45:55;;;;;;;11.57;5.20;;;;;;;11.68;59.74;101872.06;4973663;28;20589;-76
2023/10/06 08:48:25;;;;;;;10.95;4.93;;;;;;;11.69;59.57;101859.84;4967592;28;20327;-76
2023/10/06 08:50:55;;;;;;;10.52;5.28;;;;;;;11.79;59.73;101865.69;4979806;28;20053;-77
2023/10/06 08:53:23;;;;;;;10.50;4.90;;;;;;;11.80;60.07;101867.44;4945811;28;20034;-75
2023/10/06 08:55:49;;;;;;;9.43;5.38;;;;;;;11.68;60.94;101855.50;4963277;28;20566;-75
2023/10/06 08:58:14;;;;;;;14.77;6.03;;;;;;;11.78;60.88;101870.09;4960983;28;20117;-77
2023/10/06 09:00:43;;;;;;;17.38;6.30;;;;;;;11.76;60.83;101866.63;4966103;28;20038;-75
2023/10/06 09:03:11;;;;;;;14.60;5.00;;;;;;;12.00;60.02;101859.84;4964417;28;20044;-76
2023/10/06 09:05:41;;;;;;;17.67;6.10;;;;;;;11.90;60.26;101857.53;4965733;28;20446;-74
2023/10/06 09:08:09;;;;;;;9.55;5.30;;;;;;;12.26;59.61;101855.53;4951000;28;20026;-74
2023/10/06 09:10:36;;;;;;;12.23;6.15;;;;;;;12.04;60.13;101865.81;4967785;28;20078;-75
2023/10/06 09:13:05;;;;;;;14.90;7.00;;;;;;;12.19;59.75;101865.34;4982647;28;20577;-75
2023/10/06 09:15:32;;;;;;;16.98;6.28;;;;;;;12.25;59.59;101880.91;4987133;28;20065;-75
2023/10/06 09:17:58;;;;;;;11.75;5.53;;;;;;;12.37;59.04;101873.56;5001272;28;20094;-75
2023/10/06 09:20:32;;;;;;;14.63;6.15;;;;;;;12.14;60.29;101875.13;4950429;28;20333;-74
2023/10/06 09:23:01;;;;;;;13.77;6.40;;;;;;;12.40;59.17;101873.44;4956145;28;20197;-76
2023/10/06 09:25:27;;;;;;;12.73;5.93;;;;;;;12.31;59.51;101873.72;4964271;28;20049;-74
2023/10/06 09:28:03;;;;;;;12.93;6.55;;;;;;;12.61;58.79;101882.41;4973965;28;20042;-77
2023/10/06 09:30:30;;;;;;;13.55;6.80;;;;;;;11.58;61.97;101878.47;4953645;28;20319;-75
2023/10/06 09:33:02;;;;;;;14.63;6.53;;;;;;;11.95;60.82;101866.09;4950112;28;20049;-75
2023/10/06 09:35:27;;;;;;;8.18;5.22;;;;;;;12.31;59.83;101866.72;4963878;28;20046;-74
2023/10/06 09:38:09;;;;;;;12.85;5.80;;;;;;;12.20;60.27;101861.84;4978644;28;20042;-75
2023/10/06 09:40:44;;;;;;;11.63;5.65;;;;;;;12.76;58.79;101862.69;4949198;28;20049;-75
2023/10/06 09:43:17;;;;;;;6.68;5.53;;;;;;;12.77;58.34;101873.13;5002849;28;20053;-74
2023/10/06 09:45:43;;;;;;;17.60;6.85;;;;;;;12.98;58.03;101874.19;4966957;28;20332;-76
2023/10/06 09:48:18;;;;;;;9.45;5.80;;;;;;;12.35;59.25;101881.44;4965794;28;20041;-74
2023/10/06 09:50:46;;;;;;;13.85;6.07;;;;;;;12.94;58.24;101874.31;4964872;28;20097;-74
2023/10/06 09:53:15;;;;;;;16.10;6.00;;;;;;;13.02;57.84;101869.69;4965538;28;20218;-75
2023/10/06 09:55:42;;;;;;;14.35;5.50;;;;;;;13.29;57.50;101867.84;4963475;28;20137;-74
2023/10/06 09:58:08;;;;;;;13.55;5.57;;;;;;;12.81;58.86;101871.28;4980896;28;20041;-73
2023/10/06 10:00:39;;;;;;;13.88;5.78;;;;;;;13.23;57.59;101871.56;4948789;28;20088;-74
2023/10/06 10:03:06;;;;;;;11.60;6.18;;;;;;;13.56;56.66;101870.38;4967457;28;20038;-74
2023/10/06 10:05:32;;;;;;;10.00;5.00;;;;;;;13.19;57.65;101879.59;4964471;28;20046;-76
2023/10/06 10:07:58;;;;;;;10.75;6.10;;;;;;;12.87;58.89;101860.56;4966723;28;20118;-76
2023/10/06 10:10:27;;;;;;;11.23;6.25;;;;;;;13.14;58.46;101868.38;4963256;28;20161;-76
2023/10/06 10:13:11;;;;;;;10.73;6.05;;;;;;;13.66;56.75;101856.03;4966003;28;20066;-75
2023/10/06 10:16:18;;;;;;;13.68;7.10;;;;;;;13.40;57.71;101846.47;4963863;28;20046;-76
2023/10/06 10:18:56;;;;;;;8.43;5.40;;;;;;;13.73;56.63;101844.38;4947013;28;20054;-76
2023/10/06 10:21:23;;;;;;;16.27;6.68;;;;;;;13.71;56.24;101833.94;4962577;28;20174;-75
2023/10/06 10:23:48;;;;;;;9.38;5.60;;;;;;;13.41;57.65;101848.19;4953526;28;20417;-75
2023/10/06 10:26:26;;;;;;;14.23;6.38;;;;;;;12.75;59.16;101837.38;4972375;28;20757;-76
2023/10/06 10:29:24;;;;;;;13.10;5.88;;;;;;;13.57;57.13;101827.50;4968208;28;20045;-75
2023/10/06 10:31:57;;;;;;;13.88;7.13;;;;;;;13.48;57.56;101819.00;4948632;28;20061;-75
2023/10/06 10:34:23;;;;;;;9.52;6.20;;;;;;;13.06;58.01;101798.66;4966110;28;20384;-75
2023/10/06 10:37:12;;;;;;;12.00;5.72;;;;;;;13.25;57.80;101829.50;4966090;28;20038;-74
2023/10/06 10:39:50;;;;;;;17.98;5.95;;;;;;;13.10;58.42;101833.53;4969269;28;20177;-76
2023/10/06 10:42:18;;;;;;;12.30;5.57;;;;;;;13.36;57.94;101822.09;4967767;28;20521;-75
2023/10/06 10:44:47;;;;;;;10.68;6.45;;;;;;;13.63;57.08;101822.00;4997922;28;20058;-75
2023/10/06 10:47:13;;;;;;;18.95;6.55;;;;;;;13.77;56.64;101819.72;4968074;28;20038;-75
2023/10/06 10:49:38;;;;;;;10.27;5.40;;;;;;;13.65;57.11;101807.03;4962279;28;20221;-75
2023/10/06 10:52:09;;;;;;;11.45;5.80;;;;;;;13.92;56.27;101803.34;4965758;28;20042;-75
2023/10/06 10:54:39;;;;;;;16.25;6.65;;;;;;;12.97;58.78;101800.78;4997227;28;20050;-75
2023/10/06 10:57:11;;;;;;;9.70;5.90;;;;;;;13.44;57.83;101804.28;4987203;28;20103;-76
2023/10/06 11:03:00;;;;;;;7.60;5.15;;;;;;;14.13;56.36;101792.91;4980734;28;20069;-75
2023/10/06 11:05:27;;;;;;;8.55;4.55;;;;;;;13.95;56.58;101786.59;4980380;28;20582;-75
2023/10/06 11:07:56;;;;;;;12.82;5.90;;;;;;;14.37;55.59;101780.53;4965790;28;20053;-76
2023/10/06 11:10:26;;;;;;;8.52;4.60;;;;;;;14.54;54.85;101779.81;4956336;28;20594;-73
2023/10/06 11:13:15;;;;;;;11.55;5.38;;;;;;;15.18;53.48;101782.28;4964146;28;20114;-75
2023/10/06 11:15:42;;;;;;;17.70;5.60;;;;;;;15.49;52.52;101777.44;4980363;28;20379;-76
2023/10/06 11:18:09;;;;;;;10.63;3.67;;;;;;;15.21;52.74;101764.63;4967241;28;20063;-75
2023/10/06 11:20:36;;;;;;;8.38;4.80;;;;;;;15.97;52.13;101770.72;4970465;28;20046;-75
2023/10/06 11:23:03;;;;;;;13.73;4.75;;;;;;;15.54;53.04;101756.97;4965286;28;20031;-75
2023/10/06 11:25:30;;;;;;;6.63;4.05;;;;;;;15.01;53.87;101762.88;4952169;28;20094;-75
2023/10/06 11:28:12;;;;;;;11.52;4.35;;;;;;;14.23;55.33;101743.41;4964044;28;20029;-75
2023/10/06 11:30:39;;;;;;;15.65;4.10;;;;;;;15.37;52.70;101755.13;4969289;28;20046;-75
2023/10/06 11:33:08;;;;;;;6.75;3.05;;;;;;;16.57;50.00;101765.13;4981934;28;20358;-75
2023/10/06 11:35:34;;;;;;;12.05;4.38;;;;;;;15.16;52.88;101773.59;4966537;28;20042;-75
2023/10/06 11:38:02;;;;;;;10.95;4.32;;;;;;;15.17;53.65;101772.69;4967824;28;20285;-75
2023/10/06 11:40:30;;;;;;;14.02;3.45;;;;;;;15.22;53.75;101761.13;4963186;28;20159;-75
2023/10/06 11:43:08;;;;;;;13.15;3.97;;;;;;;14.86;54.53;101769.72;4946844;28;20239;-74
2023/10/06 11:45:36;;;;;;;13.20;3.28;;;;;;;15.09;54.24;101766.88;4947064;28;20057;-74
2023/10/06 11:48:02;;;;;;;8.55;4.50;;;;;;;14.46;55.15;101795.09;4954316;28;20035;-75
2023/10/06 11:50:32;;;;;;;8.07;3.25;;;;;;;14.76;54.71;101775.34;4949277;28;20039;-75